Time;durP1;ratioP1;P1;durP2;ratioP2;P2;SDS_P1;SDS_P2;PMS_P1;PMS_P2;Temp;Humidity;BMP_temperature;BMP_pressure;BME280_temperature;BME280_humidity;BME280_pressure;Samples;Min_cycle;Max_cycle;Signal;HPM_P1;HPM_P2
2022/06/18 00:02:30;;;;;;;;;;;;;;;18.66;53.67;100454.00;1780290;79;20511;-55
2022/06/18 00:05:35;;;;;;;;;;;;;;;18.65;53.81;100460.63;1781033;79;20221;-55
2022/06/18 00:08:40;;;;;;;;;;;;;;;18.63;53.93;100453.06;1780155;81;20185;-55
2022/06/18 00:15:06;;;;;;;;;;;;;;;18.61;54.13;100453.85;1780509;80;20197;-56
2022/06/18 00:18:10;;;;;;;;;;;;;;;18.61;54.22;100444.67;1780050;80;20182;-56
2022/06/18 00:21:15;;;;;;;;;;;;;;;18.60;54.27;100440.22;1780546;79;20193;-56
2022/06/18 00:24:24;;;;;;;;;;;;;;;18.58;54.38;100442.36;1779753;80;20186;-56
2022/06/18 00:27:28;;;;;;;;;;;;;;;18.57;54.47;100443.41;1780178;79;20189;-56
2022/06/18 00:30:33;;;;;;;;;;;;;;;18.55;54.56;100440.87;1780338;80;20178;-56
2022/06/18 00:33:40;;;;;;;;;;;;;;;18.56;54.65;100438.95;1786496;79;20562;-56
2022/06/18 00:36:47;;;;;;;;;;;;;;;18.55;54.70;100444.20;1796593;80;20194;-56
2022/06/18 00:39:51;;;;;;;;;;;;;;;18.52;54.72;100439.94;1793296;79;20216;-56
2022/06/18 00:42:59;;;;;;;;;;;;;;;18.49;54.70;100434.84;1792706;79;20198;-56
2022/06/18 00:46:18;;;;;;;;;;;;;;;18.47;54.73;100441.70;1796694;79;20190;-56
2022/06/18 00:49:37;;;;;;;;;;;;;;;18.45;54.85;100441.08;1789035;79;20249;-56
2022/06/18 00:52:51;;;;;;;;;;;;;;;18.43;55.07;100440.44;1782166;80;20580;-56
2022/06/18 00:56:04;;;;;;;;;;;;;;;18.45;55.21;100446.09;1782176;80;20183;-56
2022/06/18 00:59:14;;;;;;;;;;;;;;;18.49;55.34;100446.50;1782176;80;20194;-56
2022/06/18 01:02:27;;;;;;;;;;;;;;;18.49;55.41;100443.72;1777755;80;20222;-56
2022/06/18 01:05:35;;;;;;;;;;;;;;;18.48;55.52;100445.64;1771371;81;20264;-56
2022/06/18 01:08:42;;;;;;;;;;;;;;;18.51;55.63;100450.73;1759538;80;20206;-56
2022/06/18 01:11:48;;;;;;;;;;;;;;;18.51;55.64;100437.39;1759456;80;20312;-55
2022/06/18 01:14:56;;;;;;;;;;;;;;;18.48;55.67;100433.69;1761474;81;20221;-56
2022/06/18 01:18:03;;;;;;;;;;;;;;;18.42;55.76;100429.91;1765079;80;20210;-55
2022/06/18 01:21:34;;;;;;;;;;;;;;;18.32;55.86;100421.20;1776467;80;20253;-56
2022/06/18 01:24:40;;;;;;;;;;;;;;;18.25;55.98;100424.55;1765691;80;20206;-56
2022/06/18 01:27:45;;;;;;;;;;;;;;;18.14;56.11;100418.91;1771945;80;20210;-56
2022/06/18 01:30:57;;;;;;;;;;;;;;;18.06;56.25;100429.69;1771091;81;20198;-56
2022/06/18 01:34:04;;;;;;;;;;;;;;;18.01;56.36;100432.31;1771678;81;20284;-57
2022/06/18 01:37:11;;;;;;;;;;;;;;;17.99;56.50;100437.73;1773474;81;20194;-56
2022/06/18 01:40:17;;;;;;;;;;;;;;;17.97;56.67;100453.20;1778668;79;20182;-56
2022/06/18 01:43:23;;;;;;;;;;;;;;;17.99;56.86;100470.45;1773151;79;20202;-57
2022/06/18 01:46:21;;;;;;;;;;;;;;;18.02;56.96;100502.39;1771951;81;20234;-55
2022/06/18 01:49:30;;;;;;;;;;;;;;;18.01;57.03;100515.42;1757407;80;20230;-55
2022/06/18 01:52:41;;;;;;;;;;;;;;;18.01;57.13;100538.97;1739872;82;20190;-55
2022/06/18 01:55:52;;;;;;;;;;;;;;;18.03;57.24;100503.56;1741385;81;20190;-53
2022/06/18 01:59:17;;;;;;;;;;;;;;;18.04;57.35;100487.80;1740819;82;20244;-54
2022/06/18 02:02:25;;;;;;;;;;;;;;;17.97;57.46;100477.27;1740873;81;20214;-54
2022/06/18 02:05:29;;;;;;;;;;;;;;;17.88;57.54;100476.17;1740966;81;20591;-54
2022/06/18 02:08:33;;;;;;;;;;;;;;;17.80;57.63;100481.96;1709798;82;20194;-55
2022/06/18 02:11:38;;;;;;;;;;;;;;;17.72;57.73;100478.58;1741210;82;20206;-54
2022/06/18 02:14:42;;;;;;;;;;;;;;;17.61;57.80;100475.11;1740924;81;20198;-55
2022/06/18 02:17:49;;;;;;;;;;;;;;;17.49;57.95;100474.94;1741073;82;20329;-55
2022/06/18 02:20:55;;;;;;;;;;;;;;;17.38;58.07;100474.72;1741164;81;20547;-54
2022/06/18 02:24:01;;;;;;;;;;;;;;;17.31;58.21;100483.59;1741169;82;20547;-55
2022/06/18 02:27:06;;;;;;;;;;;;;;;17.28;58.37;100489.00;1741231;82;20250;-55
2022/06/18 02:30:11;;;;;;;;;;;;;;;17.27;58.53;100500.30;1740572;81;20195;-55
2022/06/18 02:33:54;;;;;;;;;;;;;;;17.26;58.66;100513.30;1741420;82;20590;-54
2022/06/18 02:36:58;;;;;;;;;;;;;;;17.29;58.79;100516.16;1716469;83;20258;-55
2022/06/18 02:40:06;;;;;;;;;;;;;;;17.31;58.83;100512.13;1709453;82;20266;-54
2022/06/18 02:43:10;;;;;;;;;;;;;;;17.34;58.79;100510.83;1716060;84;20206;-55
2022/06/18 02:46:14;;;;;;;;;;;;;;;17.30;58.78;100508.19;1732397;82;20203;-55
2022/06/18 02:49:20;;;;;;;;;;;;;;;17.29;58.90;100517.02;1741121;81;20183;-55
2022/06/18 02:52:26;;;;;;;;;;;;;;;17.32;59.07;100524.02;1761455;80;20259;-54
2022/06/18 02:55:56;;;;;;;;;;;;;;;17.35;59.25;100529.13;1773484;81;20205;-55
2022/06/18 02:58:59;;;;;;;;;;;;;;;17.37;59.38;100524.23;1771827;81;20188;-55
2022/06/18 03:02:04;;;;;;;;;;;;;;;17.38;59.37;100520.38;1773106;81;20192;-55
2022/06/18 03:05:10;;;;;;;;;;;;;;;17.41;59.37;100525.52;1772807;81;20588;-55
2022/06/18 03:08:15;;;;;;;;;;;;;;;17.43;59.41;100529.75;1755487;81;20253;-55
2022/06/18 03:14:45;;;;;;;;;;;;;;;17.48;59.43;100523.59;1773014;81;20583;-56
2022/06/18 03:17:50;;;;;;;;;;;;;;;17.50;59.48;100529.77;1758500;81;20188;-54
2022/06/18 03:21:15;;;;;;;;;;;;;;;17.48;59.42;100527.75;1773025;81;20564;-54
2022/06/18 03:24:19;;;;;;;;;;;;;;;17.41;59.38;100514.44;1773038;81;20196;-54
2022/06/18 03:27:24;;;;;;;;;;;;;;;17.35;59.42;100515.28;1772346;81;20638;-56
2022/06/18 03:30:28;;;;;;;;;;;;;;;17.28;59.47;100504.22;1773257;81;20545;-54
2022/06/18 03:33:36;;;;;;;;;;;;;;;17.23;59.59;100501.80;1773321;81;20188;-55
2022/06/18 03:36:40;;;;;;;;;;;;;;;17.20;59.63;100502.23;1794588;79;20192;-55
2022/06/18 03:39:44;;;;;;;;;;;;;;;17.16;59.71;100494.90;1773124;81;20227;-55
2022/06/18 03:42:52;;;;;;;;;;;;;;;17.16;59.79;100498.19;1772937;81;20191;-55
2022/06/18 03:45:59;;;;;;;;;;;;;;;17.16;59.86;100498.19;1760199;81;20200;-54
2022/06/18 03:49:09;;;;;;;;;;;;;;;17.12;59.82;100494.16;1760157;81;20227;-55
2022/06/18 03:52:14;;;;;;;;;;;;;;;17.06;59.92;100493.09;1784771;80;20239;-55
2022/06/18 03:55:21;;;;;;;;;;;;;;;17.11;60.12;100493.86;1767911;81;20564;-55
2022/06/18 03:58:28;;;;;;;;;;;;;;;17.19;60.16;100511.58;1767651;81;20536;-54
2022/06/18 04:01:40;;;;;;;;;;;;;;;17.25;60.22;100510.75;1699554;84;20213;-55
2022/06/18 04:04:43;;;;;;;;;;;;;;;17.33;60.24;100515.50;1700015;84;20193;-55
2022/06/18 04:07:48;;;;;;;;;;;;;;;17.42;60.30;100511.98;1699804;84;20603;-55
2022/06/18 04:10:56;;;;;;;;;;;;;;;17.51;60.22;100507.93;1701702;83;20192;-55
2022/06/18 04:14:02;;;;;;;;;;;;;;;17.58;60.26;100501.85;1683637;84;20236;-55
2022/06/18 04:17:25;;;;;;;;;;;;;;;17.72;60.30;100490.52;1715883;83;20564;-55
2022/06/18 04:20:35;;;;;;;;;;;;;;;17.87;60.28;100497.13;1757398;81;20220;-54
2022/06/18 04:23:43;;;;;;;;;;;;;;;18.01;60.24;100493.26;1745140;82;20549;-56
2022/06/18 04:26:49;;;;;;;;;;;;;;;18.16;60.30;100499.34;1738811;82;20202;-55
2022/06/18 04:29:56;;;;;;;;;;;;;;;18.20;60.16;100508.92;1683856;84;20253;-54
2022/06/18 04:33:17;;;;;;;;;;;;;;;18.34;60.26;100513.83;1663909;86;20591;-55
2022/06/18 04:36:27;;;;;;;;;;;;;;;18.47;60.25;100515.17;1662793;86;20200;-55
2022/06/18 04:39:34;;;;;;;;;;;;;;;18.50;60.18;100511.95;1664316;86;20236;-55
2022/06/18 04:42:49;;;;;;;;;;;;;;;18.41;60.09;100512.75;1652846;86;20204;-55
2022/06/18 04:45:53;;;;;;;;;;;;;;;18.39;60.15;100530.69;1720794;83;20190;-54
2022/06/18 04:49:01;;;;;;;;;;;;;;;18.36;60.22;100538.03;1719222;83;20215;-55
2022/06/18 04:52:05;;;;;;;;;;;;;;;18.37;60.35;100553.05;1680740;85;20203;-56
2022/06/18 04:55:24;;;;;;;;;;;;;;;18.44;60.52;100558.04;1754357;82;20205;-55
2022/06/18 04:58:28;;;;;;;;;;;;;;;18.51;60.53;100560.25;1747781;81;20183;-56
2022/06/18 05:01:34;;;;;;;;;;;;;;;18.57;60.51;100569.05;1747901;82;20534;-55
2022/06/18 05:04:42;;;;;;;;;;;;;;;18.60;60.56;100564.45;1699133;82;20237;-55
2022/06/18 05:07:42;;;;;;;;;;;;;;;18.65;60.52;100565.16;1747258;82;20514;-56
2022/06/18 05:10:45;;;;;;;;;;;;;;;18.69;60.52;100561.73;1746528;82;20285;-56
2022/06/18 05:13:51;;;;;;;;;;;;;;;18.76;60.57;100569.45;1746959;82;20269;-56
2022/06/18 05:17:01;;;;;;;;;;;;;;;18.82;60.51;100571.33;1747860;82;20190;-55
2022/06/18 05:20:05;;;;;;;;;;;;;;;18.91;60.58;100582.48;1747706;82;20269;-55
2022/06/18 05:23:12;;;;;;;;;;;;;;;19.00;60.63;100579.73;1747675;82;20233;-56
2022/06/18 05:26:19;;;;;;;;;;;;;;;19.04;60.59;100580.97;1747534;82;20201;-56
2022/06/18 05:29:25;;;;;;;;;;;;;;;19.04;60.52;100569.88;1747732;82;20800;-55
2022/06/18 05:32:29;;;;;;;;;;;;;;;19.06;60.57;100574.66;1747734;82;20194;-55
2022/06/18 05:35:34;;;;;;;;;;;;;;;19.10;60.64;100573.16;1747602;80;20174;-55
2022/06/18 05:38:39;;;;;;;;;;;;;;;19.15;60.73;100583.01;1747030;82;20237;-56
2022/06/18 05:41:44;;;;;;;;;;;;;;;19.19;60.72;100580.64;1747013;82;20217;-56
2022/06/18 05:44:51;;;;;;;;;;;;;;;19.23;60.74;100585.50;1747027;82;20214;-56
2022/06/18 05:47:59;;;;;;;;;;;;;;;19.30;60.71;100583.56;1746996;82;20241;-56
2022/06/18 05:51:08;;;;;;;;;;;;;;;19.36;60.64;100587.91;1747027;82;20213;-57
2022/06/18 05:54:13;;;;;;;;;;;;;;;19.44;60.53;100591.78;1748698;80;20228;-57
2022/06/18 05:57:30;;;;;;;;;;;;;;;19.51;60.49;100591.16;1708334;84;20177;-57
2022/06/18 06:00:39;;;;;;;;;;;;;;;19.57;60.47;100589.70;1685203;85;20262;-57
2022/06/18 06:03:44;;;;;;;;;;;;;;;19.61;60.44;100588.72;1697030;83;20227;-57
2022/06/18 06:06:48;;;;;;;;;;;;;;;19.72;60.50;100588.81;1714204;84;20192;-57
2022/06/18 06:13:22;;;;;;;;;;;;;;;20.05;60.66;100584.25;1732371;81;20194;-56
2022/06/18 06:16:28;;;;;;;;;;;;;;;20.32;60.65;100599.56;1751610;81;20181;-56
2022/06/18 06:19:31;;;;;;;;;;;;;;;20.53;60.57;100599.06;1766321;81;20247;-57
2022/06/18 06:22:35;;;;;;;;;;;;;;;20.76;60.48;100592.19;1792417;79;20239;-56
2022/06/18 06:25:39;;;;;;;;;;;;;;;20.97;60.38;100589.44;1765903;81;20184;-56
2022/06/18 06:28:43;;;;;;;;;;;;;;;21.19;60.26;100594.75;1775524;81;20191;-55
2022/06/18 06:31:48;;;;;;;;;;;;;;;21.37;60.11;100589.95;1774740;81;20239;-56
2022/06/18 06:34:51;;;;;;;;;;;;;;;21.52;59.81;100586.13;1775157;81;20200;-56
2022/06/18 06:37:56;;;;;;;;;;;;;;;21.76;59.73;100582.28;1769381;79;20565;-56
2022/06/18 06:41:03;;;;;;;;;;;;;;;22.00;59.65;100579.77;1746041;82;20205;-56
2022/06/18 06:44:10;;;;;;;;;;;;;;;22.19;59.56;100584.62;1746482;82;20221;-56
2022/06/18 06:47:16;;;;;;;;;;;;;;;22.24;59.22;100574.98;1745705;82;20213;-56
2022/06/18 06:50:22;;;;;;;;;;;;;;;22.23;59.01;100583.88;1736348;81;20200;-55
2022/06/18 06:53:26;;;;;;;;;;;;;;;22.23;58.98;100578.30;1716614;83;20611;-55
2022/06/18 06:59:53;;;;;;;;;;;;;;;22.33;59.11;100575.41;1733437;81;20201;-55
2022/06/18 07:02:58;;;;;;;;;;;;;;;22.39;58.92;100574.45;1758546;81;20218;-56
2022/06/18 07:06:03;;;;;;;;;;;;;;;22.42;58.89;100578.13;1755007;81;20224;-55
2022/06/18 07:09:07;;;;;;;;;;;;;;;22.35;58.85;100574.62;1727272;82;20271;-55
2022/06/18 07:12:13;;;;;;;;;;;;;;;22.32;58.92;100575.98;1727866;82;20570;-55
2022/06/18 07:15:19;;;;;;;;;;;;;;;22.42;59.09;100578.13;1729302;81;20198;-54
2022/06/18 07:18:31;;;;;;;;;;;;;;;22.53;59.09;100581.46;1727550;81;20650;-55
2022/06/18 07:21:36;;;;;;;;;;;;;;;22.58;59.05;100580.17;1728445;81;20367;-55
2022/06/18 07:24:41;;;;;;;;;;;;;;;22.59;58.91;100583.25;1727731;81;20210;-55
2022/06/18 07:27:46;;;;;;;;;;;;;;;22.65;58.98;100585.03;1728512;81;20218;-55
2022/06/18 07:30:51;;;;;;;;;;;;;;;22.69;58.83;100586.25;1727760;82;20187;-55
2022/06/18 07:33:57;;;;;;;;;;;;;;;22.66;58.65;100576.98;1727573;82;20230;-55
2022/06/18 07:37:00;;;;;;;;;;;;;;;22.66;58.53;100589.55;1727699;82;20215;-54
2022/06/18 07:40:04;;;;;;;;;;;;;;;22.67;58.56;100589.30;1727422;80;20578;-55
2022/06/18 07:43:10;;;;;;;;;;;;;;;22.73;58.52;100586.03;1727190;83;20219;-54
2022/06/18 07:46:15;;;;;;;;;;;;;;;22.80;58.40;100588.14;1727192;83;20570;-55
2022/06/18 07:49:20;;;;;;;;;;;;;;;22.88;58.41;100591.92;1727066;83;20218;-54
2022/06/18 07:52:26;;;;;;;;;;;;;;;23.04;58.28;100591.10;1727034;83;20214;-56
2022/06/18 07:55:34;;;;;;;;;;;;;;;23.23;58.31;100593.95;1727204;82;20582;-55
2022/06/18 07:58:39;;;;;;;;;;;;;;;23.43;58.17;100592.92;1750988;81;20232;-55
2022/06/18 08:01:44;;;;;;;;;;;;;;;23.57;58.01;100590.08;1750731;82;20562;-55
2022/06/18 08:04:52;;;;;;;;;;;;;;;23.61;57.82;100596.30;1712921;82;20203;-55
2022/06/18 08:07:57;;;;;;;;;;;;;;;23.63;57.70;100595.49;1764076;80;20211;-55
2022/06/18 08:11:04;;;;;;;;;;;;;;;23.70;57.61;100593.92;1771543;80;20245;-55
2022/06/18 08:14:20;;;;;;;;;;;;;;;23.81;57.56;100595.77;1753029;81;20534;-55
2022/06/18 08:17:28;;;;;;;;;;;;;;;23.85;57.25;100590.52;1769092;80;20290;-54
2022/06/18 08:20:33;;;;;;;;;;;;;;;23.84;57.09;100591.05;1757114;80;20208;-54
2022/06/18 08:23:38;;;;;;;;;;;;;;;23.90;57.06;100592.81;1754904;80;20217;-55
2022/06/18 08:26:43;;;;;;;;;;;;;;;23.96;56.93;100597.37;1758069;79;20217;-55
2022/06/18 08:29:47;;;;;;;;;;;;;;;23.90;56.78;100594.21;1764780;80;20570;-54
2022/06/18 08:32:53;;;;;;;;;;;;;;;23.85;56.74;100598.90;1765441;80;20581;-55
2022/06/18 08:35:58;;;;;;;;;;;;;;;23.86;56.68;100597.79;1720463;82;20208;-55
2022/06/18 08:39:03;;;;;;;;;;;;;;;23.92;56.63;100593.95;1765049;80;20205;-55
2022/06/18 08:42:15;;;;;;;;;;;;;;;23.90;56.50;100591.41;1778046;79;20185;-56
2022/06/18 08:45:41;;;;;;;;;;;;;;;23.97;56.35;100594.92;1720944;82;20212;-55
2022/06/18 08:48:53;;;;;;;;;;;;;;;23.93;56.18;100589.50;1657850;86;20288;-55
2022/06/18 08:52:19;;;;;;;;;;;;;;;24.07;56.26;100591.42;1753569;82;20636;-55
2022/06/18 08:56:01;;;;;;;;;;;;;;;24.26;56.24;100585.80;1725340;81;20213;-55
2022/06/18 08:59:15;;;;;;;;;;;;;;;24.43;56.08;100587.42;1747866;80;20332;-55
2022/06/18 09:02:40;;;;;;;;;;;;;;;24.52;55.87;100584.45;1734792;82;20289;-55
2022/06/18 09:06:09;;;;;;;;;;;;;;;24.51;55.79;100587.52;1730291;83;20258;-55
2022/06/18 09:09:21;;;;;;;;;;;;;;;24.61;55.71;100581.47;1681471;82;20302;-54
2022/06/18 09:12:32;;;;;;;;;;;;;;;24.74;55.61;100585.30;1673687;86;20567;-55
2022/06/18 09:15:43;;;;;;;;;;;;;;;24.90;55.54;100581.55;1674367;86;20219;-54
2022/06/18 09:18:56;;;;;;;;;;;;;;;25.03;55.35;100580.27;1697183;84;20225;-54
2022/06/18 09:22:03;;;;;;;;;;;;;;;25.08;55.13;100580.87;1743711;80;20281;-55
2022/06/18 09:25:12;;;;;;;;;;;;;;;25.17;54.94;100579.27;1723946;82;20221;-54
2022/06/18 09:28:21;;;;;;;;;;;;;;;25.30;54.74;100594.23;1744070;82;20582;-55
2022/06/18 09:31:48;;;;;;;;;;;;;;;25.40;54.67;100589.63;1746615;82;20198;-56
2022/06/18 09:35:08;;;;;;;;;;;;;;;25.61;54.65;100586.42;1746535;82;20494;-56
2022/06/18 09:38:36;;;;;;;;;;;;;;;25.78;54.50;100584.29;1746754;82;20214;-57
2022/06/18 09:41:52;;;;;;;;;;;;;;;25.82;54.18;100582.62;1725213;82;20218;-56
2022/06/18 09:45:09;;;;;;;;;;;;;;;25.69;53.93;100586.74;1746687;82;20538;-56
2022/06/18 09:48:14;;;;;;;;;;;;;;;25.69;53.74;100590.95;1746942;82;20213;-56
2022/06/18 09:51:35;;;;;;;;;;;;;;;25.72;53.54;100588.18;1747075;82;20230;-55
2022/06/18 09:54:45;;;;;;;;;;;;;;;25.89;53.68;100586.05;1746807;82;20569;-56
2022/06/18 09:57:54;;;;;;;;;;;;;;;26.09;53.42;100589.84;1746462;82;20214;-55
2022/06/18 10:00:59;;;;;;;;;;;;;;;26.11;53.07;100583.95;1741280;82;20213;-56
2022/06/18 10:07:27;;;;;;;;;;;;;;;26.33;52.77;100588.28;1741460;82;20210;-56
2022/06/18 10:10:32;;;;;;;;;;;;;;;26.35;52.67;100582.39;1742184;82;20249;-55
2022/06/18 10:13:38;;;;;;;;;;;;;;;26.42;52.43;100586.63;1742189;81;20197;-56
2022/06/18 10:16:57;;;;;;;;;;;;;;;26.40;52.36;100586.05;1741385;82;20582;-56
2022/06/18 10:20:14;;;;;;;;;;;;;;;26.57;52.36;100577.42;1740633;82;20214;-56
2022/06/18 10:23:29;;;;;;;;;;;;;;;26.62;52.04;100580.25;1742451;82;20206;-55
2022/06/18 10:26:31;;;;;;;;;;;;;;;26.66;52.08;100579.14;1685382;83;20252;-56
2022/06/18 10:29:40;;;;;;;;;;;;;;;26.88;51.99;100583.42;1712869;84;20200;-56
2022/06/18 10:33:07;;;;;;;;;;;;;;;27.02;51.88;100583.75;1712247;84;20585;-56
2022/06/18 10:36:21;;;;;;;;;;;;;;;27.26;51.81;100577.84;1712626;84;20271;-55
2022/06/18 10:39:39;;;;;;;;;;;;;;;27.56;51.58;100587.17;1712716;84;20891;-55
2022/06/18 10:42:50;;;;;;;;;;;;;;;27.70;51.07;100568.58;1712860;84;20252;-55
2022/06/18 10:45:58;;;;;;;;;;;;;;;27.83;50.72;100573.63;1679929;84;20274;-56
2022/06/18 10:49:05;;;;;;;;;;;;;;;27.98;50.55;100569.98;1741598;82;20257;-56
2022/06/18 10:52:12;;;;;;;;;;;;;;;28.07;50.34;100573.06;1740956;82;20249;-56
2022/06/18 10:55:23;;;;;;;;;;;;;;;28.07;50.06;100567.43;1742014;82;20254;-56
2022/06/18 10:58:30;;;;;;;;;;;;;;;28.07;49.96;100575.29;1742581;82;20186;-55
2022/06/18 11:01:49;;;;;;;;;;;;;;;28.17;49.78;100569.64;1753560;82;20264;-54
2022/06/18 11:05:04;;;;;;;;;;;;;;;28.18;49.64;100574.71;1757877;82;20208;-55
2022/06/18 11:08:10;;;;;;;;;;;;;;;28.07;49.42;100568.25;1757927;82;20212;-55
2022/06/18 11:11:20;;;;;;;;;;;;;;;28.07;49.38;100570.25;1757247;81;20236;-54
2022/06/18 11:14:26;;;;;;;;;;;;;;;27.91;48.98;100565.78;1746928;82;20210;-54
2022/06/18 11:17:43;;;;;;;;;;;;;;;27.71;49.05;100567.47;1738954;82;20544;-54
2022/06/18 11:20:50;;;;;;;;;;;;;;;27.76;49.09;100563.25;1717453;83;20197;-54
2022/06/18 11:24:00;;;;;;;;;;;;;;;27.84;48.81;100572.48;1681139;85;20468;-54
2022/06/18 11:27:07;;;;;;;;;;;;;;;27.61;48.51;100563.25;1716331;82;20576;-55
2022/06/18 11:30:14;;;;;;;;;;;;;;;27.44;48.43;100566.08;1716097;83;20220;-54
2022/06/18 11:33:29;;;;;;;;;;;;;;;27.20;48.28;100564.37;1716520;83;20311;-54
2022/06/18 11:36:54;;;;;;;;;;;;;;;27.00;48.30;100567.17;1716460;83;20216;-55
2022/06/18 11:40:11;;;;;;;;;;;;;;;26.84;48.17;100554.77;1717547;83;20279;-54
2022/06/18 11:43:27;;;;;;;;;;;;;;;26.63;48.04;100564.22;1710106;83;20580;-55
2022/06/18 11:46:42;;;;;;;;;;;;;;;26.49;48.03;100555.48;1717527;83;20212;-54
2022/06/18 11:50:25;;;;;;;;;;;;;;;26.56;48.18;100549.62;1746309;80;20263;-54
2022/06/18 11:53:38;;;;;;;;;;;;;;;26.63;48.04;100548.22;1745162;81;20209;-55
2022/06/18 11:57:05;;;;;;;;;;;;;;;26.63;47.91;100543.16;1699554;84;20631;-54
2022/06/18 12:00:14;;;;;;;;;;;;;;;26.57;47.85;100546.53;1687042;80;20251;-54
2022/06/18 12:03:38;;;;;;;;;;;;;;;26.44;47.75;100545.64;1744178;80;20681;-55
2022/06/18 12:06:53;;;;;;;;;;;;;;;26.39;47.79;100545.06;1728018;82;20250;-55
2022/06/18 12:10:00;;;;;;;;;;;;;;;26.39;47.67;100533.83;1669330;85;20211;-54
2022/06/18 12:13:19;;;;;;;;;;;;;;;26.40;47.59;100534.69;1645856;86;20261;-54
2022/06/18 12:16:28;;;;;;;;;;;;;;;26.46;47.58;100527.38;1645465;87;20644;-54
2022/06/18 12:19:43;;;;;;;;;;;;;;;26.69;47.55;100523.27;1674821;85;20223;-55
2022/06/18 12:22:50;;;;;;;;;;;;;;;26.88;47.50;100525.83;1712094;84;20211;-54
2022/06/18 12:26:11;;;;;;;;;;;;;;;26.99;47.35;100533.72;1709444;82;20215;-55
2022/06/18 12:29:24;;;;;;;;;;;;;;;26.85;47.15;100526.94;1702446;83;20252;-54
2022/06/18 12:32:27;;;;;;;;;;;;;;;26.56;47.02;100532.18;1703046;83;20217;-54
2022/06/18 12:35:47;;;;;;;;;;;;;;;26.31;47.05;100525.09;1703216;83;20552;-54
2022/06/18 12:39:11;;;;;;;;;;;;;;;26.10;47.06;100522.77;1663889;86;20249;-55
2022/06/18 12:42:25;;;;;;;;;;;;;;;26.02;47.21;100526.67;1663860;86;20228;-54
2022/06/18 12:45:50;;;;;;;;;;;;;;;25.86;47.22;100517.27;1663567;86;20224;-54
2022/06/18 12:49:20;;;;;;;;;;;;;;;25.84;47.43;100518.67;1662538;86;20572;-54
2022/06/18 12:52:42;;;;;;;;;;;;;;;25.73;47.43;100519.73;1662312;86;20247;-55
2022/06/18 12:56:08;;;;;;;;;;;;;;;25.53;47.50;100523.83;1662420;86;20253;-55
2022/06/18 12:59:22;;;;;;;;;;;;;;;25.37;47.61;100520.05;1662158;86;20212;-54
2022/06/18 13:02:48;;;;;;;;;;;;;;;25.20;47.71;100514.30;1688110;80;20220;-54
2022/06/18 13:06:19;;;;;;;;;;;;;;;24.99;47.84;100525.31;1726953;83;20206;-54
2022/06/18 13:09:48;;;;;;;;;;;;;;;25.00;48.06;100529.83;1708313;83;20270;-54
2022/06/18 13:13:01;;;;;;;;;;;;;;;25.09;48.20;100525.96;1716888;83;20196;-55
2022/06/18 13:16:21;;;;;;;;;;;;;;;25.22;48.26;100529.72;1715852;83;20287;-54
2022/06/18 13:19:28;;;;;;;;;;;;;;;25.37;48.32;100534.64;1716406;83;20652;-55
2022/06/18 13:22:22;;;;;;;;;;;;;;;25.47;48.32;100545.91;1716931;83;20207;-55
2022/06/18 13:28:32;;;;;;;;;;;;;;;25.39;48.22;100537.45;1716792;82;20244;-58
2022/06/18 13:31:41;;;;;;;;;;;;;;;25.38;48.19;100547.53;1716271;83;20212;-58
2022/06/18 13:34:46;;;;;;;;;;;;;;;25.26;48.16;100539.84;1716852;83;20212;-58
2022/06/18 13:38:15;;;;;;;;;;;;;;;25.14;48.21;100537.77;1716284;83;20287;-58
2022/06/18 13:41:40;;;;;;;;;;;;;;;25.08;48.28;100538.84;1720859;81;20565;-58
2022/06/18 13:45:23;;;;;;;;;;;;;;;25.07;48.39;100541.36;1775064;81;20543;-57
2022/06/18 13:48:51;;;;;;;;;;;;;;;25.14;48.53;100547.57;1775887;81;20215;-57
2022/06/18 13:52:07;;;;;;;;;;;;;;;25.17;48.42;100541.43;1708032;84;20220;-58
2022/06/18 13:55:15;;;;;;;;;;;;;;;25.11;48.41;100539.70;1686339;84;20205;-57
2022/06/18 13:58:29;;;;;;;;;;;;;;;25.15;48.48;100540.30;1694684;82;20209;-57
2022/06/18 14:01:34;;;;;;;;;;;;;;;25.28;48.48;100548.81;1700698;84;20192;-58
2022/06/18 14:04:44;;;;;;;;;;;;;;;25.28;48.31;100558.62;1728979;82;20186;-58
2022/06/18 14:07:53;;;;;;;;;;;;;;;25.16;48.31;100549.56;1743476;81;20546;-55
2022/06/18 14:10:57;;;;;;;;;;;;;;;25.14;48.44;100547.03;1707217;84;20533;-55
2022/06/18 14:14:05;;;;;;;;;;;;;;;25.14;48.52;100540.02;1707445;84;20260;-54
2022/06/18 14:17:13;;;;;;;;;;;;;;;25.19;48.57;100547.62;1704419;82;20216;-54
2022/06/18 14:20:34;;;;;;;;;;;;;;;25.18;48.47;100536.14;1704743;82;20217;-55
2022/06/18 14:23:44;;;;;;;;;;;;;;;25.14;48.39;100541.42;1703671;82;20226;-54
2022/06/18 14:26:52;;;;;;;;;;;;;;;25.12;48.37;100542.81;1737223;81;20206;-54
2022/06/18 14:29:57;;;;;;;;;;;;;;;25.10;48.41;100539.42;1738511;80;20245;-55
2022/06/18 14:33:09;;;;;;;;;;;;;;;25.16;48.48;100548.16;1744745;82;20217;-54
2022/06/18 14:36:26;;;;;;;;;;;;;;;25.16;48.45;100544.81;1745261;82;20558;-54
2022/06/18 14:39:34;;;;;;;;;;;;;;;25.19;48.51;100544.82;1744565;82;20205;-54
2022/06/18 14:42:44;;;;;;;;;;;;;;;25.27;48.46;100548.53;1766982;81;20300;-54
2022/06/18 14:46:09;;;;;;;;;;;;;;;25.18;48.34;100540.34;1746392;82;20214;-54
2022/06/18 14:49:35;;;;;;;;;;;;;;;25.16;48.39;100549.02;1707014;84;20252;-55
2022/06/18 14:52:56;;;;;;;;;;;;;;;25.18;48.36;100543.97;1704162;84;20573;-54
2022/06/18 14:56:30;;;;;;;;;;;;;;;25.23;48.36;100548.22;1703870;84;20197;-54
2022/06/18 15:00:08;;;;;;;;;;;;;;;25.25;48.30;100542.34;1697596;84;20273;-54
2022/06/18 15:03:22;;;;;;;;;;;;;;;25.32;48.36;100545.77;1697422;83;20217;-54
2022/06/18 15:06:27;;;;;;;;;;;;;;;25.53;48.12;100546.26;1698178;84;20196;-55
2022/06/18 15:09:37;;;;;;;;;;;;;;;25.61;47.94;100549.96;1670755;85;20520;-55
2022/06/18 15:12:44;;;;;;;;;;;;;;;25.60;47.92;100539.30;1694289;84;20189;-55
2022/06/18 15:16:04;;;;;;;;;;;;;;;25.66;47.90;100545.77;1698602;84;20259;-55
2022/06/18 15:22:54;;;;;;;;;;;;;;;25.71;47.89;100545.80;1698563;84;20719;-55
2022/06/18 15:25:40;;;;;;;;;;;;;;;25.81;47.86;100545.87;1698343;84;20245;-55
2022/06/18 15:28:49;;;;;;;;;;;;;;;25.93;47.86;100543.14;1718587;82;20224;-56
2022/06/18 15:31:55;;;;;;;;;;;;;;;25.96;47.71;100533.31;1747075;82;20249;-55
2022/06/18 15:35:18;;;;;;;;;;;;;;;25.96;47.62;100537.53;1747587;82;20214;-55
2022/06/18 15:38:39;;;;;;;;;;;;;;;25.92;47.54;100542.01;1745494;82;20212;-55
2022/06/18 15:41:46;;;;;;;;;;;;;;;25.88;47.52;100542.25;1746447;82;20222;-56
2022/06/18 15:44:53;;;;;;;;;;;;;;;25.86;47.62;100539.72;1750693;80;20593;-56
2022/06/18 15:47:59;;;;;;;;;;;;;;;25.99;47.63;100537.83;1775519;81;20242;-55
2022/06/18 15:51:08;;;;;;;;;;;;;;;26.10;47.50;100543.81;1774913;81;20209;-55
2022/06/18 15:54:33;;;;;;;;;;;;;;;26.11;47.39;100550.28;1774974;81;20210;-55
2022/06/18 15:57:37;;;;;;;;;;;;;;;26.10;47.32;100552.81;1774890;81;20214;-56
2022/06/18 16:00:44;;;;;;;;;;;;;;;25.95;47.16;100559.15;1764888;80;20557;-55
2022/06/18 16:03:50;;;;;;;;;;;;;;;25.85;47.19;100564.69;1774068;81;20282;-55
2022/06/18 16:06:58;;;;;;;;;;;;;;;25.78;47.19;100567.46;1785760;79;20317;-55
2022/06/18 16:10:09;;;;;;;;;;;;;;;25.76;47.22;100561.27;1775936;81;20233;-55
2022/06/18 16:13:33;;;;;;;;;;;;;;;25.77;47.23;100568.55;1775920;80;20197;-55
2022/06/18 16:16:45;;;;;;;;;;;;;;;25.79;47.18;100577.55;1773296;80;20570;-55
2022/06/18 16:19:54;;;;;;;;;;;;;;;26.13;47.12;100575.54;1717203;83;20240;-55
2022/06/18 16:23:08;;;;;;;;;;;;;;;27.13;46.61;100584.87;1674147;86;20223;-54
2022/06/18 16:26:16;;;;;;;;;;;;;;;27.92;45.66;100577.30;1727967;80;20573;-54
2022/06/18 16:29:23;;;;;;;;;;;;;;;28.82;44.89;100576.96;1762279;81;20554;-54
2022/06/18 16:32:45;;;;;;;;;;;;;;;29.47;44.11;100582.16;1717297;83;20330;-55
2022/06/18 16:36:08;;;;;;;;;;;;;;;29.83;43.56;100574.21;1716408;83;20240;-54
2022/06/18 16:39:13;;;;;;;;;;;;;;;29.38;43.29;100574.06;1715662;83;20216;-54
2022/06/18 16:42:40;;;;;;;;;;;;;;;28.59;43.69;100579.08;1717067;83;20240;-54